Time;durP1;ratioP1;P1;durP2;ratioP2;P2;SDS_P1;SDS_P2;PMS_P1;PMS_P2;Temp;Humidity;BMP_temperature;BMP_pressure;BME280_temperature;BME280_humidity;BME280_pressure;Samples;Min_cycle;Max_cycle;Signal;HPM_P1;HPM_P2
2022/06/25 00:01:27;;;;;;;0.82;0.82;;;21.60;70.80;;;;;;5081992;28;20029;-67
2022/06/25 00:03:53;;;;;;;0.88;0.88;;;21.60;70.80;;;;;;5077854;28;20103;-65
2022/06/25 00:06:20;;;;;;;1.27;1.17;;;21.50;71.50;;;;;;5085783;28;20039;-67
2022/06/25 00:08:47;;;;;;;0.90;0.90;;;21.60;71.10;;;;;;5098538;28;20467;-67
2022/06/25 00:14:08;;;;;;;1.55;1.30;;;21.50;71.20;;;;;;5084776;28;20079;-68
2022/06/25 00:16:34;;;;;;;1.02;0.95;;;21.50;71.20;;;;;;5072779;28;20033;-67
2022/06/25 00:19:00;;;;;;;1.30;1.20;;;21.50;71.40;;;;;;5072832;28;20017;-67
2022/06/25 00:21:26;;;;;;;0.90;0.88;;;21.50;71.40;;;;;;5073111;28;20033;-66
2022/06/25 00:23:52;;;;;;;1.10;1.00;;;21.50;71.30;;;;;;5101629;28;20025;-67
2022/06/25 00:26:18;;;;;;;1.02;0.93;;;21.50;71.30;;;;;;5077427;28;20072;-67
2022/06/25 00:28:44;;;;;;;0.80;0.80;;;21.50;71.30;;;;;;5072619;28;20036;-64
2022/06/25 00:31:09;;;;;;;1.20;1.10;;;21.60;71.40;;;;;;5072253;28;20463;-67
2022/06/25 00:33:35;;;;;;;4.07;1.30;;;21.60;71.30;;;;;;5072815;28;20454;-67
2022/06/25 00:36:01;;;;;;;0.77;0.77;;;21.50;71.40;;;;;;5077615;28;20047;-66
2022/06/25 00:38:27;;;;;;;1.50;1.20;;;21.60;71.40;;;;;;5078041;28;20051;-67
2022/06/25 00:40:53;;;;;;;1.05;1.05;;;21.60;71.40;;;;;;5088141;28;20035;-67
2022/06/25 00:43:18;;;;;;;5.68;1.55;;;21.60;71.40;;;;;;5082578;28;20112;-67
2022/06/25 00:45:44;;;;;;;1.17;0.90;;;21.50;72.00;;;;;;5076534;28;20074;-66
2022/06/25 00:48:10;;;;;;;1.48;1.33;;;21.50;71.60;;;;;;5071658;28;20027;-66
2022/06/25 00:50:36;;;;;;;1.02;0.95;;;21.50;71.60;;;;;;5072490;28;20044;-66
2022/06/25 00:53:04;;;;;;;1.73;0.80;;;21.50;71.70;;;;;;5074160;28;20032;-66
2022/06/25 00:55:31;;;;;;;0.70;0.70;;;21.50;71.60;;;;;;5072114;28;20021;-67
2022/06/25 00:58:00;;;;;;;0.68;0.68;;;21.50;71.70;;;;;;5072899;28;20032;-66
2022/06/25 01:00:26;;;;;;;0.73;0.73;;;21.40;71.70;;;;;;5078996;28;20024;-67
2022/06/25 01:02:52;;;;;;;0.80;0.80;;;21.40;71.80;;;;;;5075114;28;20077;-66
2022/06/25 01:05:18;;;;;;;0.93;0.70;;;21.40;71.80;;;;;;5087626;28;20077;-66
2022/06/25 01:07:46;;;;;;;1.35;1.08;;;21.40;71.90;;;;;;5077525;28;20053;-67
2022/06/25 01:10:13;;;;;;;0.60;0.60;;;21.30;72.00;;;;;;5071066;28;20028;-66
2022/06/25 01:12:39;;;;;;;0.77;0.77;;;21.30;72.10;;;;;;5096512;28;20031;-67
2022/06/25 01:15:16;;;;;;;1.02;0.80;;;21.30;72.00;;;;;;5082477;28;20249;-69
2022/06/25 01:17:46;;;;;;;1.02;0.88;;;21.30;72.10;;;;;;5083656;28;20035;-68
2022/06/25 01:20:13;;;;;;;0.85;0.85;;;21.20;72.00;;;;;;5071645;28;20021;-66
2022/06/25 01:22:39;;;;;;;0.93;0.60;;;21.20;72.00;;;;;;5080477;28;20032;-66
2022/06/25 01:25:09;;;;;;;0.90;0.90;;;21.20;72.10;;;;;;5080535;28;20030;-67
2022/06/25 01:27:36;;;;;;;0.80;0.80;;;21.20;72.20;;;;;;5070702;28;20036;-66
2022/06/25 01:30:03;;;;;;;0.82;0.82;;;21.20;72.20;;;;;;5073111;28;20129;-66
2022/06/25 01:32:29;;;;;;;0.80;0.80;;;21.20;72.20;;;;;;5079794;28;20043;-67
2022/06/25 01:34:55;;;;;;;2.70;1.15;;;21.20;72.30;;;;;;5082310;28;20031;-66
2022/06/25 01:37:21;;;;;;;1.02;1.00;;;21.10;72.30;;;;;;5079298;28;20032;-67
2022/06/25 01:39:55;;;;;;;0.60;0.60;;;21.10;72.30;;;;;;5079641;28;20107;-65
2022/06/25 01:45:09;;;;;;;0.60;0.60;;;21.10;72.40;;;;;;5090973;28;20035;-66
2022/06/25 01:47:35;;;;;;;0.80;0.80;;;21.10;72.30;;;;;;5076418;28;20394;-67
2022/06/25 01:50:01;;;;;;;1.00;1.00;;;21.10;72.30;;;;;;5078342;28;20028;-64
2022/06/25 01:52:26;;;;;;;1.00;0.90;;;21.00;72.30;;;;;;5071302;28;20485;-65
2022/06/25 01:54:52;;;;;;;1.20;1.02;;;21.00;72.40;;;;;;5070928;28;20033;-65
2022/06/25 01:57:18;;;;;;;0.82;0.82;;;21.00;72.30;;;;;;5084538;28;20028;-66
2022/06/25 01:59:47;;;;;;;1.10;0.93;;;21.00;72.40;;;;;;5070134;28;20672;-65
2022/06/25 02:02:13;;;;;;;1.40;1.08;;;21.00;72.50;;;;;;5084003;28;20136;-66
2022/06/25 02:04:39;;;;;;;1.10;0.90;;;21.00;72.40;;;;;;5088747;28;20028;-66
2022/06/25 02:07:05;;;;;;;2.60;0.70;;;21.00;72.50;;;;;;5089943;28;20032;-66
2022/06/25 02:09:31;;;;;;;1.08;1.08;;;20.90;72.50;;;;;;5075558;28;20051;-65
2022/06/25 02:11:56;;;;;;;1.15;1.00;;;20.90;72.50;;;;;;5081652;28;20509;-67
2022/06/25 02:14:22;;;;;;;0.70;0.70;;;20.90;72.50;;;;;;5070634;28;20147;-67
2022/06/25 02:16:48;;;;;;;1.17;1.08;;;20.90;72.50;;;;;;5076573;28;20024;-66
2022/06/25 02:19:14;;;;;;;0.70;0.70;;;20.90;72.50;;;;;;5077706;28;20086;-66
2022/06/25 02:21:39;;;;;;;0.70;0.70;;;20.90;72.50;;;;;;5069224;28;20074;-66
2022/06/25 02:24:05;;;;;;;1.30;1.20;;;20.90;72.50;;;;;;5076578;28;20056;-65
2022/06/25 02:26:31;;;;;;;0.80;0.80;;;20.90;72.60;;;;;;5089513;28;20561;-66
2022/06/25 02:28:57;;;;;;;0.68;0.68;;;20.90;72.60;;;;;;5080964;28;20024;-67
2022/06/25 02:31:22;;;;;;;1.02;0.90;;;20.90;72.60;;;;;;5078468;28;20028;-67
2022/06/25 02:33:48;;;;;;;0.75;0.70;;;20.90;72.60;;;;;;5084324;28;20400;-67
2022/06/25 02:36:14;;;;;;;0.70;0.70;;;20.90;72.60;;;;;;5078338;28;20031;-67
2022/06/25 02:38:40;;;;;;;0.80;0.80;;;20.90;72.60;;;;;;5080401;28;20025;-67
2022/06/25 02:41:05;;;;;;;1.05;0.60;;;20.80;72.50;;;;;;5068325;28;20032;-67
2022/06/25 02:43:31;;;;;;;0.90;0.90;;;20.80;72.60;;;;;;5082278;28;20386;-66
2022/06/25 02:45:57;;;;;;;1.42;1.00;;;20.80;72.70;;;;;;5090443;28;20421;-67
2022/06/25 02:48:23;;;;;;;1.60;1.10;;;20.70;72.80;;;;;;5084306;28;20140;-67
2022/06/25 02:50:49;;;;;;;0.77;0.77;;;20.70;72.90;;;;;;5073049;28;20078;-65
2022/06/25 02:53:14;;;;;;;1.67;0.90;;;20.70;72.90;;;;;;5084198;28;20027;-67
2022/06/25 03:01:09;;;;;;;0.57;0.57;;;20.60;73.00;;;;;;5069804;28;20102;-66
2022/06/25 03:03:34;;;;;;;0.52;0.52;;;20.60;73.00;;;;;;5073365;28;20036;-66
2022/06/25 03:06:00;;;;;;;1.52;0.85;;;20.60;72.90;;;;;;5078705;28;20040;-65
2022/06/25 03:08:26;;;;;;;0.68;0.68;;;20.70;72.90;;;;;;5069988;28;20033;-67
2022/06/25 03:10:53;;;;;;;0.82;0.82;;;20.70;72.80;;;;;;5069044;28;20119;-67
2022/06/25 03:13:19;;;;;;;0.50;0.50;;;20.70;72.70;;;;;;5068296;28;20079;-66
2022/06/25 03:15:45;;;;;;;0.77;0.77;;;20.70;72.60;;;;;;5076570;28;20036;-68
2022/06/25 03:18:11;;;;;;;1.02;0.90;;;20.70;72.50;;;;;;5082599;28;20036;-66
2022/06/25 03:20:36;;;;;;;1.35;1.13;;;20.70;72.50;;;;;;5067789;28;20036;-67
2022/06/25 03:23:02;;;;;;;1.30;0.80;;;20.70;72.50;;;;;;5088270;28;20024;-67
2022/06/25 03:25:28;;;;;;;0.73;0.73;;;20.70;72.50;;;;;;5085194;28;20375;-67
2022/06/25 03:27:54;;;;;;;0.82;0.82;;;20.70;72.40;;;;;;5095408;28;20028;-68
2022/06/25 03:30:21;;;;;;;0.80;0.80;;;20.70;72.30;;;;;;5089944;28;20024;-67
2022/06/25 03:32:46;;;;;;;1.77;0.90;;;20.70;72.30;;;;;;5087000;28;20051;-67
2022/06/25 03:35:12;;;;;;;1.17;0.60;;;20.70;72.30;;;;;;5067990;28;20051;-67
2022/06/25 03:37:38;;;;;;;1.85;0.77;;;20.70;72.30;;;;;;5086287;28;20425;-67
2022/06/25 03:40:04;;;;;;;2.53;0.93;;;20.60;72.40;;;;;;5082218;28;20112;-67
2022/06/25 03:42:29;;;;;;;0.70;0.70;;;20.60;72.40;;;;;;5090940;28;20020;-67
2022/06/25 03:44:55;;;;;;;1.30;0.63;;;20.50;72.50;;;;;;5089427;28;20194;-67
2022/06/25 03:47:21;;;;;;;0.70;0.70;;;20.50;72.60;;;;;;5090855;28;20040;-67
2022/06/25 03:49:47;;;;;;;0.65;0.65;;;20.50;72.70;;;;;;5094887;28;20049;-67
2022/06/25 03:52:12;;;;;;;0.77;0.77;;;20.40;72.60;;;;;;5084541;28;20107;-67
2022/06/25 03:54:38;;;;;;;0.90;0.82;;;20.40;72.70;;;;;;5084960;28;20024;-66
2022/06/25 03:57:04;;;;;;;1.02;0.63;;;20.40;72.70;;;;;;5083869;28;20119;-66
2022/06/25 03:59:30;;;;;;;0.82;0.82;;;20.40;72.70;;;;;;5075102;28;20490;-66
2022/06/25 04:01:56;;;;;;;1.85;0.60;;;20.40;72.70;;;;;;5091762;28;20063;-66
2022/06/25 04:04:21;;;;;;;0.95;0.47;;;20.40;72.70;;;;;;5078253;28;20037;-66
2022/06/25 04:06:47;;;;;;;0.60;0.60;;;20.40;72.80;;;;;;5084347;28;20476;-65
2022/06/25 04:09:13;;;;;;;1.77;0.68;;;20.40;72.80;;;;;;5079908;28;20470;-66
2022/06/25 04:11:39;;;;;;;1.10;0.77;;;20.40;72.80;;;;;;5075478;28;20115;-64
2022/06/25 04:14:06;;;;;;;0.40;0.40;;;20.40;72.80;;;;;;5077671;28;20049;-65
2022/06/25 04:16:32;;;;;;;0.93;0.80;;;20.50;72.80;;;;;;5082823;28;20032;-65
2022/06/25 04:18:58;;;;;;;0.93;0.80;;;20.50;72.80;;;;;;5083828;28;20106;-66
2022/06/25 04:21:27;;;;;;;0.88;0.70;;;20.50;72.80;;;;;;5064221;28;20060;-67
2022/06/25 04:23:52;;;;;;;1.10;1.00;;;20.50;72.90;;;;;;5090938;28;20514;-65
2022/06/25 04:26:18;;;;;;;0.80;0.80;;;20.60;72.90;;;;;;5090044;28;20024;-65
2022/06/25 04:29:05;;;;;;;0.75;0.73;;;20.60;72.90;;;;;;5077051;28;20056;-65
2022/06/25 04:31:32;;;;;;;3.78;0.70;;;20.60;72.90;;;;;;5074637;28;20511;-66
2022/06/25 04:33:58;;;;;;;0.60;0.60;;;20.70;72.80;;;;;;5086228;28;20681;-66
2022/06/25 04:36:24;;;;;;;1.05;0.90;;;20.70;72.70;;;;;;5078856;28;20113;-67
2022/06/25 04:38:50;;;;;;;1.00;1.00;;;20.80;72.60;;;;;;5073342;28;20467;-67
2022/06/25 04:41:16;;;;;;;1.55;0.90;;;20.90;72.50;;;;;;5063267;28;20017;-67
2022/06/25 04:43:41;;;;;;;1.15;1.05;;;20.90;72.30;;;;;;5092830;28;20394;-67
2022/06/25 04:46:07;;;;;;;2.30;0.85;;;20.90;72.40;;;;;;5095008;28;20028;-67
2022/06/25 04:48:33;;;;;;;1.08;0.98;;;21.00;72.40;;;;;;5076890;28;20418;-67
2022/06/25 04:50:58;;;;;;;2.80;1.10;;;21.00;72.40;;;;;;5084395;28;20032;-66
2022/06/25 04:53:24;;;;;;;1.17;1.00;;;21.10;72.40;;;;;;5092255;28;20062;-66
2022/06/25 04:55:50;;;;;;;2.05;1.23;;;21.10;72.10;;;;;;5078193;28;20032;-67
2022/06/25 04:58:15;;;;;;;1.60;1.48;;;21.20;72.00;;;;;;5082014;28;20037;-65
2022/06/25 05:00:41;;;;;;;3.35;1.05;;;21.20;71.80;;;;;;5070380;28;20108;-66
2022/06/25 05:03:08;;;;;;;0.60;0.60;;;21.20;71.70;;;;;;5076199;28;20387;-66
2022/06/25 05:05:34;;;;;;;1.08;1.00;;;21.20;71.60;;;;;;5092918;28;20059;-67
2022/06/25 05:08:00;;;;;;;1.98;1.73;;;21.30;71.70;;;;;;5085568;28;20677;-66
2022/06/25 05:10:26;;;;;;;1.02;0.93;;;21.20;71.60;;;;;;5078812;28;20029;-67
2022/06/25 05:15:37;;;;;;;1.30;1.20;;;21.30;71.40;;;;;;5092362;28;20774;-65
2022/06/25 05:18:03;;;;;;;1.30;1.13;;;21.30;71.30;;;;;;5078390;28;20029;-66
2022/06/25 05:20:29;;;;;;;1.05;0.95;;;21.40;71.20;;;;;;5079117;28;20037;-67
2022/06/25 05:22:55;;;;;;;3.30;1.25;;;21.40;71.20;;;;;;5094410;28;20042;-66
2022/06/25 05:25:21;;;;;;;1.25;1.05;;;21.50;71.30;;;;;;5077030;28;20029;-67
2022/06/25 05:27:46;;;;;;;0.98;0.90;;;21.50;70.80;;;;;;5093305;28;20555;-65
2022/06/25 05:30:12;;;;;;;1.67;1.58;;;21.50;70.80;;;;;;5085117;28;20111;-67
2022/06/25 05:32:38;;;;;;;1.58;1.30;;;21.60;70.70;;;;;;5078611;28;20020;-65
2022/06/25 05:35:04;;;;;;;1.58;1.00;;;21.60;70.80;;;;;;5077465;28;20052;-66
2022/06/25 05:37:29;;;;;;;2.13;1.33;;;21.60;70.70;;;;;;5084699;28;20028;-65
2022/06/25 05:39:55;;;;;;;1.48;1.33;;;21.70;70.90;;;;;;5091356;28;20070;-68
2022/06/25 05:42:21;;;;;;;1.40;1.30;;;21.70;70.60;;;;;;5074279;28;20387;-68
2022/06/25 05:44:47;;;;;;;1.05;0.93;;;21.80;70.50;;;;;;5080023;28;20032;-68
2022/06/25 05:47:13;;;;;;;1.17;1.17;;;21.80;71.00;;;;;;5084876;28;20036;-67
2022/06/25 05:49:39;;;;;;;1.52;1.10;;;21.90;70.20;;;;;;5070035;28;20025;-68
2022/06/25 05:52:05;;;;;;;1.65;1.55;;;21.90;70.30;;;;;;5069564;28;20039;-67
2022/06/25 05:54:31;;;;;;;0.93;0.90;;;21.90;70.00;;;;;;5094923;28;20093;-67
2022/06/25 05:56:56;;;;;;;2.08;1.45;;;21.90;70.00;;;;;;5077694;28;20065;-68
2022/06/25 05:59:22;;;;;;;3.53;0.95;;;21.90;69.90;;;;;;5069916;28;20082;-65
2022/06/25 06:01:48;;;;;;;2.15;1.05;;;21.80;70.00;;;;;;5089734;28;20039;-64
2022/06/25 06:04:13;;;;;;;3.33;1.00;;;21.80;69.90;;;;;;5074900;28;20029;-64
2022/06/25 06:06:39;;;;;;;0.77;0.77;;;21.70;69.90;;;;;;5080702;28;20055;-65
2022/06/25 06:09:05;;;;;;;1.20;1.10;;;21.70;70.00;;;;;;5075342;28;20078;-68
2022/06/25 06:11:31;;;;;;;2.75;1.50;;;21.70;70.10;;;;;;5087345;28;20059;-65
2022/06/25 06:13:56;;;;;;;1.67;1.02;;;21.70;70.10;;;;;;5062662;28;20087;-65
2022/06/25 06:16:22;;;;;;;2.15;1.10;;;21.80;69.90;;;;;;5075458;28;20024;-67
2022/06/25 06:18:48;;;;;;;1.35;1.00;;;21.80;69.60;;;;;;5084747;28;20078;-68
2022/06/25 06:21:14;;;;;;;1.40;1.30;;;21.80;69.30;;;;;;5069440;28;20510;-65
2022/06/25 06:23:39;;;;;;;1.63;1.10;;;21.90;69.40;;;;;;5077889;28;20028;-67
2022/06/25 06:26:05;;;;;;;0.80;0.80;;;22.00;69.30;;;;;;5069834;28;20044;-67
2022/06/25 06:28:30;;;;;;;0.82;0.82;;;22.00;69.10;;;;;;5088742;28;20032;-67
2022/06/25 06:30:56;;;;;;;1.08;1.00;;;22.10;69.00;;;;;;5067904;28;20032;-65
2022/06/25 06:33:22;;;;;;;1.40;1.00;;;22.00;68.70;;;;;;5079939;28;20059;-65
2022/06/25 06:35:47;;;;;;;0.85;0.85;;;22.10;68.60;;;;;;5073582;28;20059;-66
2022/06/25 06:38:13;;;;;;;1.23;1.13;;;22.10;68.40;;;;;;5079141;28;20037;-67
2022/06/25 06:40:39;;;;;;;1.77;1.58;;;22.20;68.30;;;;;;5069374;28;20036;-68
2022/06/25 06:43:04;;;;;;;0.95;0.95;;;22.30;67.80;;;;;;5081305;28;20027;-65
2022/06/25 06:45:31;;;;;;;1.45;1.02;;;22.40;67.80;;;;;;5074666;28;20093;-65
2022/06/25 06:47:57;;;;;;;0.70;0.70;;;22.50;67.10;;;;;;5081157;28;20103;-65
2022/06/25 06:50:23;;;;;;;0.85;0.82;;;22.40;66.90;;;;;;5095594;28;20123;-66
2022/06/25 06:52:48;;;;;;;2.83;1.02;;;22.50;67.00;;;;;;5073321;28;20078;-66
2022/06/25 06:55:14;;;;;;;0.98;0.88;;;22.50;66.80;;;;;;5087136;28;20050;-65
2022/06/25 06:57:40;;;;;;;1.50;1.23;;;22.50;66.80;;;;;;5096954;28;20024;-65
2022/06/25 07:00:06;;;;;;;1.25;0.85;;;22.50;66.80;;;;;;5067942;28;20037;-65
2022/06/25 07:02:33;;;;;;;1.05;0.95;;;22.50;66.80;;;;;;5071042;28;20040;-66
2022/06/25 07:04:59;;;;;;;1.25;1.15;;;22.50;66.90;;;;;;5081242;28;20048;-65
2022/06/25 07:07:25;;;;;;;1.33;1.00;;;22.60;66.70;;;;;;5077549;28;20616;-65
2022/06/25 07:09:51;;;;;;;1.95;0.85;;;22.70;66.40;;;;;;5073000;28;20032;-66
2022/06/25 07:12:17;;;;;;;1.60;1.00;;;22.70;66.40;;;;;;5075371;28;20505;-65
2022/06/25 07:14:43;;;;;;;0.95;0.90;;;22.90;66.10;;;;;;5078943;28;20041;-65
2022/06/25 07:17:08;;;;;;;1.02;0.90;;;22.90;66.10;;;;;;5069716;28;20040;-64
2022/06/25 07:19:34;;;;;;;1.00;0.88;;;23.10;66.00;;;;;;5068571;28;20017;-68
2022/06/25 07:22:00;;;;;;;3.97;0.90;;;23.20;65.70;;;;;;5071131;28;20035;-68
2022/06/25 07:24:26;;;;;;;1.40;0.80;;;23.30;65.10;;;;;;5075132;28;20115;-67
2022/06/25 07:26:51;;;;;;;2.15;0.98;;;23.30;64.90;;;;;;5088095;28;20558;-65
2022/06/25 07:29:17;;;;;;;0.77;0.77;;;23.50;64.90;;;;;;5074081;28;20406;-65
2022/06/25 07:31:43;;;;;;;1.40;1.13;;;23.60;64.90;;;;;;5069506;28;20368;-65
2022/06/25 07:34:09;;;;;;;1.20;0.95;;;23.70;64.70;;;;;;5069545;28;20098;-67
2022/06/25 07:36:35;;;;;;;1.30;0.98;;;23.80;64.10;;;;;;5067316;28;20379;-67
2022/06/25 07:39:02;;;;;;;0.80;0.80;;;23.80;63.80;;;;;;5079319;28;20032;-67
2022/06/25 07:41:28;;;;;;;0.80;0.75;;;23.70;63.70;;;;;;5089440;28;20435;-67
2022/06/25 07:43:54;;;;;;;0.65;0.65;;;23.60;64.10;;;;;;5081984;28;20067;-67
2022/06/25 07:46:19;;;;;;;2.22;1.48;;;23.70;64.30;;;;;;5079902;28;20119;-65
2022/06/25 07:48:45;;;;;;;0.75;0.75;;;23.70;64.20;;;;;;5080842;28;20044;-65
2022/06/25 07:53:55;;;;;;;0.85;0.77;;;23.70;64.40;;;;;;5084828;28;20509;-68
2022/06/25 07:56:22;;;;;;;0.60;0.60;;;23.60;64.20;;;;;;5093610;28;20033;-65
2022/06/25 07:58:48;;;;;;;1.10;1.00;;;23.60;64.50;;;;;;5067327;28;20043;-65
2022/06/25 08:01:13;;;;;;;0.70;0.70;;;23.70;64.60;;;;;;5067141;28;20468;-65
2022/06/25 08:03:39;;;;;;;0.70;0.70;;;24.00;64.40;;;;;;5078880;28;20036;-66
2022/06/25 08:06:05;;;;;;;0.63;0.63;;;24.20;63.80;;;;;;5070653;28;20521;-68
2022/06/25 08:08:31;;;;;;;0.70;0.70;;;24.40;63.60;;;;;;5081136;28;20086;-65
2022/06/25 08:10:57;;;;;;;0.85;0.73;;;24.60;63.70;;;;;;5070168;28;20024;-67
2022/06/25 08:13:23;;;;;;;0.60;0.60;;;24.70;62.80;;;;;;5079905;28;20576;-67
2022/06/25 08:15:49;;;;;;;0.75;0.60;;;24.70;62.80;;;;;;5083444;28;20133;-64
2022/06/25 08:18:16;;;;;;;0.95;0.90;;;24.70;62.80;;;;;;5103553;28;20073;-65
2022/06/25 08:20:41;;;;;;;1.65;0.75;;;24.60;62.50;;;;;;5088262;28;20116;-65
2022/06/25 08:23:07;;;;;;;2.30;1.20;;;24.50;62.60;;;;;;5075273;28;20513;-65
2022/06/25 08:25:33;;;;;;;0.65;0.65;;;24.40;62.40;;;;;;5088174;28;20032;-68
2022/06/25 08:27:59;;;;;;;0.80;0.80;;;24.40;62.60;;;;;;5082032;28;20108;-65
2022/06/25 08:30:25;;;;;;;0.60;0.60;;;24.30;62.90;;;;;;5083803;28;20028;-65
2022/06/25 08:32:51;;;;;;;0.85;0.82;;;24.20;62.50;;;;;;5089034;28;20036;-65
2022/06/25 08:35:17;;;;;;;0.60;0.60;;;24.10;62.70;;;;;;5083160;28;20032;-65
2022/06/25 08:37:47;;;;;;;0.60;0.60;;;24.00;63.20;;;;;;5088014;28;20024;-67
2022/06/25 08:40:15;;;;;;;0.60;0.60;;;24.00;63.40;;;;;;5085360;28;20055;-64
2022/06/25 08:42:41;;;;;;;0.75;0.70;;;24.10;63.30;;;;;;5085453;28;20028;-64
2022/06/25 08:45:07;;;;;;;0.93;0.40;;;24.20;62.50;;;;;;5092572;28;20088;-65
2022/06/25 08:47:33;;;;;;;0.82;0.50;;;24.30;61.60;;;;;;5110076;28;20032;-68
2022/06/25 08:50:00;;;;;;;0.88;0.77;;;24.40;61.60;;;;;;5091629;28;20047;-67
2022/06/25 08:52:30;;;;;;;1.27;0.65;;;24.40;61.00;;;;;;5078886;28;20028;-67
2022/06/25 08:54:57;;;;;;;1.00;0.80;;;24.50;61.00;;;;;;5090573;28;20050;-67
2022/06/25 08:57:23;;;;;;;0.60;0.60;;;24.60;60.60;;;;;;5078120;28;20028;-65
2022/06/25 08:59:48;;;;;;;0.50;0.50;;;24.70;60.50;;;;;;5080432;28;20034;-64
2022/06/25 09:02:14;;;;;;;0.75;0.75;;;24.70;60.40;;;;;;5086956;28;20032;-64
2022/06/25 09:04:40;;;;;;;0.63;0.63;;;24.80;60.70;;;;;;5082868;28;20024;-64
2022/06/25 09:07:11;;;;;;;0.50;0.50;;;24.80;61.40;;;;;;5088381;28;20113;-66
2022/06/25 09:09:37;;;;;;;0.40;0.40;;;24.90;60.80;;;;;;5091693;28;20486;-65
2022/06/25 09:12:08;;;;;;;0.50;0.50;;;24.90;60.80;;;;;;5098989;28;20070;-65
2022/06/25 09:14:35;;;;;;;0.65;0.65;;;25.00;60.60;;;;;;5085832;28;20051;-67
2022/06/25 09:17:12;;;;;;;1.17;1.08;;;25.10;60.10;;;;;;5079796;28;20047;-67
2022/06/25 09:19:40;;;;;;;0.60;0.60;;;25.20;60.00;;;;;;5070121;28;20467;-67
2022/06/25 09:22:08;;;;;;;0.50;0.50;;;25.30;59.80;;;;;;5075129;28;20027;-67
2022/06/25 09:24:39;;;;;;;0.80;0.65;;;25.30;59.80;;;;;;5096883;28;20028;-67
2022/06/25 09:27:05;;;;;;;0.40;0.40;;;25.20;59.30;;;;;;5092672;28;20036;-67
2022/06/25 09:29:39;;;;;;;0.47;0.47;;;25.00;58.80;;;;;;5082128;28;20035;-67
2022/06/25 09:32:05;;;;;;;0.50;0.50;;;24.80;59.00;;;;;;5082490;28;20171;-67
2022/06/25 09:34:36;;;;;;;0.57;0.40;;;24.60;59.30;;;;;;5091442;28;20410;-67
2022/06/25 09:37:26;;;;;;;7.32;0.60;;;24.50;60.00;;;;;;5078926;28;20031;-68
2022/06/25 09:39:54;;;;;;;0.47;0.47;;;24.40;60.30;;;;;;5075697;28;20060;-68
2022/06/25 09:42:23;;;;;;;0.52;0.52;;;24.30;60.60;;;;;;5083976;28;20016;-67
2022/06/25 09:45:06;;;;;;;0.40;0.40;;;24.30;60.90;;;;;;5101311;28;20457;-64
2022/06/25 09:47:36;;;;;;;0.50;0.50;;;24.30;60.80;;;;;;5089345;28;20039;-65
2022/06/25 09:50:22;;;;;;;0.82;0.60;;;24.20;60.70;;;;;;5079977;28;20038;-67
2022/06/25 09:52:52;;;;;;;0.77;0.63;;;24.20;61.10;;;;;;5096786;28;20066;-65
2022/06/25 09:55:19;;;;;;;1.92;0.50;;;24.20;61.10;;;;;;5081668;28;20466;-65
2022/06/25 09:57:46;;;;;;;0.60;0.30;;;24.20;61.30;;;;;;5074830;28;20033;-67
2022/06/25 10:00:14;;;;;;;4.30;0.77;;;24.20;61.30;;;;;;5081597;28;20032;-66
2022/06/25 10:02:43;;;;;;;0.77;0.77;;;24.20;61.00;;;;;;5073031;28;20119;-67
2022/06/25 10:05:11;;;;;;;0.93;0.60;;;24.20;61.40;;;;;;5081007;28;20020;-67
2022/06/25 10:10:23;;;;;;;0.68;0.60;;;24.20;61.70;;;;;;5067876;28;20071;-68
2022/06/25 10:12:50;;;;;;;0.90;0.90;;;24.20;61.60;;;;;;5069678;28;20033;-68
2022/06/25 10:15:18;;;;;;;2.67;0.63;;;24.10;61.60;;;;;;5080690;28;20040;-68
2022/06/25 10:17:46;;;;;;;3.72;0.77;;;24.10;61.60;;;;;;5069566;28;20407;-68
2022/06/25 10:20:13;;;;;;;1.05;0.73;;;24.10;61.50;;;;;;5090196;28;20124;-68
2022/06/25 10:22:39;;;;;;;0.57;0.57;;;24.10;61.60;;;;;;5081738;28;20147;-69
2022/06/25 10:25:10;;;;;;;0.50;0.50;;;24.10;61.80;;;;;;5082197;28;20013;-67
2022/06/25 10:27:47;;;;;;;0.60;0.60;;;24.20;61.80;;;;;;5089343;28;20119;-68
2022/06/25 10:30:14;;;;;;;1.95;0.68;;;24.20;61.60;;;;;;5086360;28;20034;-68
2022/06/25 10:32:49;;;;;;;0.57;0.57;;;24.30;61.60;;;;;;5075807;28;20025;-67
2022/06/25 10:35:37;;;;;;;1.15;0.50;;;24.30;61.60;;;;;;5092004;28;20051;-67
2022/06/25 10:38:03;;;;;;;0.63;0.63;;;24.40;61.60;;;;;;5108794;27;20038;-67
2022/06/25 10:40:30;;;;;;;2.83;1.30;;;24.50;61.10;;;;;;5093594;28;20028;-67
2022/06/25 10:42:58;;;;;;;0.60;0.60;;;24.70;61.00;;;;;;5084378;28;20348;-66
2022/06/25 10:45:24;;;;;;;0.68;0.63;;;24.70;60.60;;;;;;5080604;28;20032;-67
2022/06/25 10:47:59;;;;;;;0.40;0.30;;;24.70;60.80;;;;;;5080845;28;20024;-68
2022/06/25 10:50:25;;;;;;;1.35;1.17;;;24.70;60.90;;;;;;5084275;28;20024;-65
2022/06/25 10:53:03;;;;;;;1.20;1.10;;;24.70;60.50;;;;;;5089591;28;20039;-65
2022/06/25 10:55:29;;;;;;;0.77;0.77;;;24.60;61.10;;;;;;5079948;28;20047;-65
2022/06/25 10:58:11;;;;;;;0.40;0.40;;;24.60;61.20;;;;;;5070874;28;20055;-64
2022/06/25 11:01:03;;;;;;;0.85;0.82;;;24.50;61.30;;;;;;5082454;28;20041;-67
2022/06/25 11:03:29;;;;;;;0.82;0.82;;;24.50;61.10;;;;;;5087607;28;20525;-66
2022/06/25 11:06:16;;;;;;;0.55;0.55;;;24.40;61.00;;;;;;5096888;28;20061;-64
2022/06/25 11:08:42;;;;;;;0.90;0.70;;;24.40;61.90;;;;;;5074006;28;20494;-64
2022/06/25 11:11:08;;;;;;;0.65;0.60;;;24.40;60.80;;;;;;5089607;28;20024;-64
2022/06/25 11:13:34;;;;;;;1.35;0.82;;;24.40;60.70;;;;;;5074643;28;20600;-65
2022/06/25 11:16:11;;;;;;;1.00;0.70;;;24.30;60.60;;;;;;5094638;28;20367;-64
2022/06/25 11:18:46;;;;;;;2.05;1.05;;;24.30;60.80;;;;;;5078273;28;20051;-65
2022/06/25 11:21:25;;;;;;;0.60;0.60;;;24.30;61.10;;;;;;5087463;28;20054;-67
2022/06/25 11:23:50;;;;;;;0.50;0.50;;;24.30;61.20;;;;;;5097547;28;20050;-67
2022/06/25 11:29:02;;;;;;;0.45;0.45;;;24.40;61.60;;;;;;5089794;28;20162;-67
2022/06/25 11:31:27;;;;;;;0.60;0.60;;;24.40;61.60;;;;;;5092161;28;20093;-68
2022/06/25 11:33:54;;;;;;;0.60;0.60;;;24.50;61.70;;;;;;5088359;28;20040;-64
2022/06/25 11:36:20;;;;;;;0.88;0.88;;;24.50;61.50;;;;;;5072326;28;20440;-64
2022/06/25 11:38:54;;;;;;;0.80;0.80;;;24.60;61.30;;;;;;5081080;28;20032;-64
2022/06/25 11:41:28;;;;;;;0.43;0.43;;;24.70;61.40;;;;;;5085489;28;20032;-64
2022/06/25 11:43:54;;;;;;;0.57;0.57;;;24.90;61.10;;;;;;5071578;28;20021;-65
2022/06/25 11:46:20;;;;;;;0.60;0.60;;;25.10;60.90;;;;;;5078564;28;20108;-64
2022/06/25 11:48:47;;;;;;;0.55;0.55;;;25.30;60.50;;;;;;5078416;28;20487;-65
2022/06/25 11:51:14;;;;;;;0.63;0.63;;;25.50;60.20;;;;;;5088491;28;20071;-65
2022/06/25 11:53:41;;;;;;;0.50;0.50;;;25.70;58.80;;;;;;5086471;28;20031;-63
2022/06/25 11:56:07;;;;;;;0.60;0.60;;;26.00;59.10;;;;;;5089794;28;20107;-65
2022/06/25 11:58:35;;;;;;;0.65;0.60;;;26.60;58.10;;;;;;5088827;28;20032;-68
2022/06/25 12:01:03;;;;;;;0.50;0.50;;;27.00;57.50;;;;;;5084720;28;20020;-67
2022/06/25 12:03:30;;;;;;;0.70;0.70;;;27.20;56.60;;;;;;5084997;28;20017;-67
2022/06/25 12:05:58;;;;;;;0.50;0.50;;;27.20;56.30;;;;;;5075507;28;20044;-62
2022/06/25 12:08:24;;;;;;;1.40;0.70;;;27.00;55.90;;;;;;5100041;28;20387;-67
2022/06/25 12:10:51;;;;;;;0.70;0.70;;;26.90;56.30;;;;;;5087219;28;20023;-67
2022/06/25 12:13:20;;;;;;;0.73;0.73;;;26.90;56.40;;;;;;5081425;28;20344;-67
2022/06/25 12:15:46;;;;;;;0.65;0.65;;;26.90;56.30;;;;;;5081473;28;20082;-67
2022/06/25 12:18:12;;;;;;;0.98;0.70;;;27.00;56.60;;;;;;5076446;28;20081;-67
2022/06/25 12:20:56;;;;;;;3.45;0.88;;;27.30;56.40;;;;;;5083260;28;20449;-68
2022/06/25 12:23:22;;;;;;;0.80;0.63;;;27.10;55.70;;;;;;5086611;28;20085;-67
2022/06/25 12:25:48;;;;;;;0.70;0.70;;;26.90;55.40;;;;;;5087809;28;20024;-67
2022/06/25 12:28:14;;;;;;;0.68;0.68;;;26.80;56.00;;;;;;5076022;28;20094;-67
2022/06/25 12:30:40;;;;;;;0.60;0.60;;;26.80;56.10;;;;;;5076549;28;20140;-67
2022/06/25 12:33:13;;;;;;;0.88;0.73;;;26.90;55.70;;;;;;5089795;28;20040;-67
2022/06/25 12:35:45;;;;;;;0.60;0.60;;;27.00;55.90;;;;;;5071191;28;20025;-68
2022/06/25 12:38:14;;;;;;;0.90;0.90;;;26.90;56.40;;;;;;5084715;28;20036;-67
2022/06/25 12:40:43;;;;;;;0.65;0.65;;;26.80;56.10;;;;;;5080242;28;20462;-68
2022/06/25 12:43:11;;;;;;;0.82;0.60;;;26.90;56.60;;;;;;5071580;28;20024;-67
2022/06/25 12:45:39;;;;;;;0.57;0.57;;;27.30;56.30;;;;;;5070831;28;20089;-67
2022/06/25 12:48:06;;;;;;;0.73;0.60;;;27.80;55.20;;;;;;5084485;28;20028;-67
2022/06/25 12:50:34;;;;;;;1.15;1.00;;;28.20;53.70;;;;;;5076459;28;20032;-68
2022/06/25 12:53:07;;;;;;;0.73;0.73;;;28.40;53.60;;;;;;5072016;28;20413;-67
2022/06/25 12:55:33;;;;;;;0.80;0.80;;;28.50;53.90;;;;;;5079607;28;20033;-67
2022/06/25 12:58:08;;;;;;;0.80;0.80;;;28.70;53.70;;;;;;5081787;28;20056;-67
2022/06/25 13:00:37;;;;;;;0.63;0.63;;;28.70;52.70;;;;;;5081674;28;20082;-67
2022/06/25 13:03:04;;;;;;;0.70;0.70;;;28.60;53.30;;;;;;5083792;28;20386;-65
2022/06/25 13:05:31;;;;;;;1.02;0.82;;;28.60;53.20;;;;;;5088351;28;20024;-65
2022/06/25 13:07:57;;;;;;;1.83;0.70;;;28.40;52.50;;;;;;5085402;28;20036;-64
2022/06/25 13:10:23;;;;;;;0.50;0.50;;;28.30;53.00;;;;;;5086856;28;20093;-64